Time;durP1;ratioP1;P1;durP2;ratioP2;P2;SDS_P1;SDS_P2;PMS_P1;PMS_P2;Temp;Humidity;BMP_temperature;BMP_pressure;BME280_temperature;BME280_humidity;BME280_pressure;Samples;Min_cycle;Max_cycle;Signal;HPM_P1;HPM_P2
2021/04/02 00:00:21;;;;;;;1999.90;999.90;;;;;;;7.01;100.00;-18096.78;5056867;28;20197;-29
2021/04/02 00:03:15;;;;;;;1999.90;999.90;;;;;;;7.38;100.00;-18106.56;5056845;28;20320;-29
2021/04/02 00:06:03;;;;;;;1999.90;999.90;;;;;;;7.31;100.00;-18104.56;5057369;28;20204;-29
2021/04/02 00:08:50;;;;;;;1999.90;999.90;;;;;;;7.36;100.00;-18106.03;5057141;28;20188;-29
2021/04/02 00:11:38;;;;;;;1999.90;999.90;;;;;;;7.22;100.00;-18102.28;5056647;28;20200;-29
2021/04/02 00:14:24;;;;;;;1999.90;999.90;;;;;;;7.15;100.00;-18100.41;5058244;28;20469;-29
2021/04/02 00:17:10;;;;;;;1999.90;999.90;;;;;;;7.17;100.00;-18100.94;5060621;28;20491;-29
2021/04/02 00:19:56;;;;;;;1999.90;999.90;;;;;;;7.24;100.00;-18102.81;5060815;28;20930;-29
2021/04/02 00:22:45;;;;;;;1999.90;999.90;;;;;;;7.26;100.00;-18103.34;5060490;28;20835;-29
2021/04/02 00:25:32;;;;;;;1999.90;999.90;;;;;;;6.87;100.00;-18093.16;5060222;28;20581;-29
2021/04/02 00:28:18;;;;;;;1999.90;999.90;;;;;;;7.18;100.00;-18101.34;5060470;28;20199;-29
2021/04/02 00:31:04;;;;;;;1999.90;999.90;;;;;;;7.09;100.00;-18098.78;5060623;28;20188;-30
2021/04/02 00:33:51;;;;;;;1999.90;999.90;;;;;;;7.21;100.00;-18102.00;5060707;28;20446;-29
2021/04/02 00:36:36;;;;;;;1999.90;999.90;;;;;;;7.23;100.00;-18102.53;5060298;28;20204;-29
2021/04/02 00:39:23;;;;;;;1999.90;999.90;;;;;;;6.97;100.00;-18095.72;5062281;28;20200;-29
2021/04/02 00:42:10;;;;;;;1999.90;999.90;;;;;;;7.07;100.00;-18098.25;5066619;28;20497;-29
2021/04/02 00:44:56;;;;;;;1999.90;999.90;;;;;;;7.05;100.00;-18097.84;5063467;28;20228;-29
2021/04/02 00:47:42;;;;;;;1999.90;999.90;;;;;;;6.89;100.00;-18093.69;5059734;28;20808;-29
2021/04/02 00:50:37;;;;;;;1999.90;999.90;;;;;;;6.97;100.00;-18095.72;5060312;28;20438;-30
2021/04/02 00:53:25;;;;;;;1999.90;999.90;;;;;;;6.91;100.00;-18094.09;5060061;28;20489;-29
2021/04/02 00:56:12;;;;;;;1999.90;999.90;;;;;;;6.55;100.00;-18084.72;5059940;28;20204;-29
2021/04/02 00:59:00;;;;;;;1999.90;999.90;;;;;;;6.74;100.00;-18089.53;5059563;28;20446;-29
2021/04/02 01:01:49;;;;;;;1999.90;999.90;;;;;;;6.85;100.00;-18092.47;5059601;28;20497;-29
2021/04/02 01:04:34;;;;;;;1999.90;999.90;;;;;;;6.50;100.00;-18083.38;5059666;28;20481;-29
2021/04/02 01:07:20;;;;;;;1999.90;999.90;;;;;;;6.50;100.00;-18083.22;5059812;28;20450;-30
2021/04/02 01:10:09;;;;;;;1999.90;999.90;;;;;;;6.47;100.00;-18082.56;5059883;28;20443;-29
2021/04/02 01:12:57;;;;;;;1999.90;999.90;;;;;;;6.26;100.00;-18076.94;5059968;28;20443;-29
2021/04/02 01:15:51;;;;;;;1999.90;999.90;;;;;;;6.31;100.00;-18078.28;5062481;28;20883;-29
2021/04/02 01:18:42;;;;;;;1999.90;999.90;;;;;;;6.19;100.00;-18075.06;5060568;28;20482;-29
2021/04/02 01:21:32;;;;;;;1999.90;999.90;;;;;;;6.28;100.00;-18077.47;5060270;28;20608;-29
2021/04/02 01:24:45;;;;;;;1999.90;999.90;;;;;;;6.33;100.00;-18078.81;5061176;28;20961;-30
2021/04/02 01:27:39;;;;;;;1999.90;999.90;;;;;;;6.28;100.00;-18077.34;5059619;28;20447;-29
2021/04/02 01:30:26;;;;;;;1999.90;999.90;;;;;;;6.39;100.00;-18080.41;5059688;28;20442;-29
2021/04/02 01:33:13;;;;;;;1999.90;999.90;;;;;;;6.44;100.00;-18081.75;5061805;28;20454;-29
2021/04/02 01:36:00;;;;;;;1999.90;999.90;;;;;;;6.33;100.00;-18078.69;5060154;28;20709;-29
2021/04/02 01:38:47;;;;;;;1999.90;999.90;;;;;;;6.11;100.00;-18072.91;5059523;28;20443;-30
2021/04/02 01:41:37;;;;;;;1999.90;999.90;;;;;;;6.01;100.00;-18070.22;5061265;28;20786;-29
2021/04/02 01:44:24;;;;;;;1999.90;999.90;;;;;;;6.15;100.00;-18074.13;5059470;28;20478;-29
2021/04/02 01:47:12;;;;;;;1999.90;999.90;;;;;;;6.19;100.00;-18075.06;5060558;28;20862;-30
2021/04/02 01:49:58;;;;;;;1999.90;999.90;;;;;;;6.28;100.00;-18077.47;5061287;28;20447;-29
2021/04/02 01:52:46;;;;;;;1999.90;999.90;;;;;;;6.23;100.00;-18076.13;5059789;28;20455;-29
2021/04/02 01:55:32;;;;;;;1999.90;999.90;;;;;;;6.25;100.00;-18076.66;5062005;28;20467;-29
2021/04/02 01:58:19;;;;;;;1999.90;999.90;;;;;;;6.16;100.00;-18074.38;5061879;28;20450;-29
2021/04/02 02:01:06;;;;;;;1999.90;999.90;;;;;;;6.12;100.00;-18073.16;5061175;28;20466;-29
2021/04/02 02:03:56;;;;;;;1999.90;999.90;;;;;;;6.05;100.00;-18071.44;5061437;28;20984;-29
2021/04/02 02:06:42;;;;;;;1999.90;999.90;;;;;;;5.98;100.00;-18069.41;5068201;28;20442;-29
2021/04/02 02:09:33;;;;;;;1999.90;999.90;;;;;;;5.98;100.00;-18069.41;5063179;28;20981;-29
2021/04/02 02:12:20;;;;;;;1999.90;999.90;;;;;;;5.97;100.00;-18069.16;5060914;28;20870;-30
2021/04/02 02:15:10;;;;;;;1999.90;999.90;;;;;;;6.02;100.00;-18070.63;5060119;28;20533;-29
2021/04/02 02:18:00;;;;;;;1999.90;999.90;;;;;;;6.00;100.00;-18069.94;5059688;28;20537;-29
2021/04/02 02:20:47;;;;;;;1999.90;999.90;;;;;;;5.92;100.00;-18067.81;5061356;28;20443;-29
2021/04/02 02:23:33;;;;;;;1999.90;999.90;;;;;;;5.77;100.00;-18064.03;5059484;28;21009;-29
2021/04/02 02:26:21;;;;;;;1999.90;999.90;;;;;;;5.69;100.00;-18061.75;5061212;28;20885;-30
2021/04/02 02:29:09;;;;;;;1999.90;999.90;;;;;;;5.88;100.00;-18066.84;5059164;28;20510;-30
2021/04/02 02:31:56;;;;;;;1999.90;999.90;;;;;;;5.86;100.00;-18066.31;5065766;28;20537;-29
2021/04/02 02:34:43;;;;;;;1999.90;999.90;;;;;;;5.65;100.00;-18060.69;5058175;28;20443;-30
2021/04/02 02:37:30;;;;;;;1999.90;999.90;;;;;;;5.59;100.00;-17686.34;5058587;28;20547;-29
2021/04/02 02:40:18;;;;;;;1999.90;999.90;;;;;;;5.45;100.00;-16913.38;5059823;28;20806;-29
2021/04/02 02:43:06;;;;;;;1999.90;999.90;;;;;;;5.61;100.00;-14680.09;5058109;28;20719;-29
2021/04/02 02:45:51;;;;;;;1999.90;999.90;;;;;;;5.73;100.00;-15051.53;5058087;28;20545;-29
2021/04/02 02:48:41;;;;;;;1999.90;999.90;;;;;;;5.71;100.00;-15385.03;5058133;28;20548;-29
2021/04/02 02:51:29;;;;;;;1999.90;999.90;;;;;;;5.88;100.00;-14977.63;5058119;28;20455;-29
2021/04/02 02:54:18;;;;;;;1999.90;999.90;;;;;;;5.86;100.00;-15049.47;5058243;28;20443;-30
2021/04/02 02:57:06;;;;;;;1999.90;999.90;;;;;;;5.75;100.00;-15812.16;5058213;28;20577;-29
2021/04/02 02:59:53;;;;;;;1999.90;999.90;;;;;;;5.88;100.00;-14356.84;5057848;28;20595;-29
2021/04/02 03:02:40;;;;;;;1999.90;999.90;;;;;;;5.62;100.00;-14486.03;5057795;28;20443;-29
2021/04/02 03:05:28;;;;;;;1999.90;999.90;;;;;;;5.76;100.00;-12541.63;5057557;28;20785;-29
2021/04/02 03:08:18;;;;;;;1999.90;999.90;;;;;;;5.59;100.00;-11596.03;5060507;28;20670;-30
2021/04/02 03:11:09;;;;;;;1999.90;999.90;;;;;;;5.67;100.00;-8895.06;5068491;28;20440;-29
2021/04/02 03:13:56;;;;;;;1999.90;999.90;;;;;;;5.70;100.00;-9299.72;5057634;28;20459;-29
2021/04/02 03:16:45;;;;;;;1999.90;999.90;;;;;;;5.92;100.00;-8680.69;5057498;28;20557;-29
2021/04/02 03:19:33;;;;;;;1999.90;999.90;;;;;;;6.21;100.00;-10317.47;5057557;28;20983;-29
2021/04/02 03:22:19;;;;;;;1999.90;999.90;;;;;;;6.09;100.00;-14236.38;5057362;28;20574;-29
2021/04/02 03:25:10;;;;;;;1999.90;999.90;;;;;;;6.16;100.00;-13529.19;5058665;28;20478;-29
2021/04/02 03:27:57;;;;;;;1999.90;999.90;;;;;;;6.29;100.00;-14786.63;5062812;28;20439;-30
2021/04/02 03:30:44;;;;;;;1999.90;999.90;;;;;;;6.28;100.00;-16764.19;5057320;28;20443;-29
2021/04/02 03:33:32;;;;;;;1999.90;999.90;;;;;;;6.09;100.00;-17397.66;5057542;28;20534;-29
2021/04/02 03:36:20;;;;;;;1999.90;999.90;;;;;;;5.88;100.00;-16335.91;5057204;28;20497;-29
2021/04/02 03:39:10;;;;;;;1999.90;999.90;;;;;;;6.04;100.00;-14699.09;5057445;28;20447;-29
2021/04/02 03:41:59;;;;;;;1999.90;999.90;;;;;;;6.19;100.00;-15779.81;5057744;28;20451;-29
2021/04/02 03:44:48;;;;;;;1999.90;999.90;;;;;;;6.28;100.00;-15672.03;5061510;28;20661;-29
2021/04/02 03:47:34;;;;;;;1999.90;999.90;;;;;;;6.48;100.00;-17507.31;5060217;28;20855;-29
2021/04/02 03:50:23;;;;;;;1999.90;999.90;;;;;;;6.36;100.00;-18079.63;5068240;28;20438;-29
2021/04/02 03:53:14;;;;;;;1999.90;999.90;;;;;;;6.18;100.00;-18074.91;5073740;28;20459;-29
2021/04/02 03:56:03;;;;;;;1999.90;999.90;;;;;;;6.24;100.00;-17718.09;5062960;28;20443;-29
2021/04/02 03:58:51;;;;;;;1999.90;999.90;;;;;;;6.39;100.00;-18080.41;5064634;28;20439;-29
2021/04/02 04:01:42;;;;;;;1999.90;999.90;;;;;;;6.32;100.00;-18078.41;5062288;28;20721;-29
2021/04/02 04:04:29;;;;;;;1999.90;999.90;;;;;;;6.25;100.00;-18076.66;5065611;28;20482;-29
2021/04/02 04:07:18;;;;;;;1999.90;999.90;;;;;;;6.32;100.00;-18078.53;5062596;28;20894;-29
2021/04/02 04:10:05;;;;;;;1999.90;999.90;;;;;;;6.57;100.00;-18085.25;5060827;28;20462;-29
2021/04/02 04:12:56;;;;;;;1999.90;999.90;;;;;;;6.73;100.00;-18089.41;5060606;28;20862;-29
2021/04/02 04:15:43;;;;;;;1999.90;999.90;;;;;;;6.78;100.00;-18090.75;5061428;28;20595;-29
2021/04/02 04:18:31;;;;;;;1999.90;999.90;;;;;;;6.86;100.00;-18092.75;5060903;28;20502;-29
2021/04/02 04:21:18;;;;;;;1999.90;999.90;;;;;;;6.95;100.00;-18095.16;5067854;28;20438;-29
2021/04/02 04:24:11;;;;;;;1999.90;999.90;;;;;;;6.86;100.00;-18092.88;5062073;28;20604;-34
2021/04/02 04:26:58;;;;;;;1999.90;999.90;;;;;;;6.99;100.00;-18096.09;5060721;28;20593;-29
2021/04/02 04:29:51;;;;;;;1999.90;999.90;;;;;;;6.99;100.00;-18096.25;5060243;28;20753;-29
2021/04/02 04:32:40;;;;;;;1999.90;999.90;;;;;;;6.70;100.00;-18088.47;5061554;28;20502;-29
2021/04/02 04:35:29;;;;;;;1999.90;999.90;;;;;;;6.65;100.00;-18087.13;5062511;28;20447;-29
2021/04/02 04:38:19;;;;;;;1999.90;999.90;;;;;;;6.60;100.00;-18085.91;5060797;28;20450;-29
2021/04/02 04:41:09;;;;;;;1999.90;999.90;;;;;;;6.53;100.00;-18084.03;5060281;28;20505;-29
2021/04/02 04:43:57;;;;;;;1999.90;999.90;;;;;;;6.37;100.00;-18079.88;5060059;28;20451;-29
2021/04/02 04:46:43;;;;;;;1999.90;999.90;;;;;;;6.66;100.00;-18087.38;5060274;28;20616;-29
2021/04/02 04:49:28;;;;;;;1999.90;999.90;;;;;;;6.37;100.00;-18079.88;5060314;28;20447;-29
2021/04/02 04:52:17;;;;;;;1999.90;999.90;;;;;;;6.76;100.00;-18090.06;5060039;28;20446;-29
2021/04/02 04:55:08;;;;;;;1999.90;999.90;;;;;;;6.50;100.00;-18083.22;5060940;28;20546;-29
2021/04/02 04:57:57;;;;;;;1999.90;999.90;;;;;;;6.45;100.00;-18082.03;5060773;28;20535;-29
2021/04/02 05:00:45;;;;;;;1999.90;999.90;;;;;;;6.64;100.00;-18086.84;5060919;28;20497;-29
2021/04/02 05:03:33;;;;;;;1999.90;999.90;;;;;;;6.82;100.00;-18091.69;5064990;28;20861;-29
2021/04/02 05:06:21;;;;;;;1999.90;999.90;;;;;;;6.80;100.00;-18091.28;5063404;28;20573;-29
2021/04/02 05:09:11;;;;;;;1999.90;999.90;;;;;;;6.59;100.00;-18085.66;5059847;28;20442;-29
2021/04/02 05:11:59;;;;;;;1999.90;999.90;;;;;;;6.30;100.00;-18077.88;5060011;28;20779;-29
2021/04/02 05:14:47;;;;;;;1999.90;999.90;;;;;;;6.32;100.00;-18078.41;5060243;28;20286;-29
2021/04/02 05:17:34;;;;;;;1999.90;999.90;;;;;;;6.52;100.00;-18083.78;5059608;28;20533;-29
2021/04/02 05:20:26;;;;;;;1999.90;999.90;;;;;;;6.73;100.00;-18089.41;5060030;28;20720;-29
2021/04/02 05:23:14;;;;;;;1999.90;999.90;;;;;;;6.63;100.00;-18086.59;5061309;28;20443;-29
2021/04/02 05:26:03;;;;;;;1999.90;999.90;;;;;;;6.90;100.00;-18093.97;5061107;28;20479;-29
2021/04/02 05:28:49;;;;;;;1999.90;999.90;;;;;;;6.43;100.00;-18081.34;5059939;28;20447;-29
2021/04/02 05:31:38;;;;;;;1999.90;999.90;;;;;;;6.78;100.00;-18090.63;5060476;28;20541;-29
2021/04/02 05:34:32;;;;;;;1999.90;999.90;;;;;;;6.54;100.00;-18084.31;5061984;28;20435;-29
2021/04/02 05:37:21;;;;;;;1999.90;999.90;;;;;;;6.35;100.00;-18079.22;5061039;28;20406;-29
2021/04/02 05:40:08;;;;;;;1999.90;999.90;;;;;;;6.35;100.00;-18079.34;5060355;28;20566;-30
2021/04/02 05:42:59;;;;;;;1999.90;999.90;;;;;;;6.65;100.00;-18087.13;5060703;28;20451;-28
2021/04/02 05:45:46;;;;;;;1999.90;999.90;;;;;;;6.74;100.00;-18089.66;5063367;28;20224;-29
2021/04/02 05:48:33;;;;;;;1999.90;999.90;;;;;;;6.61;100.00;-18086.03;5059959;28;20509;-28
2021/04/02 05:51:19;;;;;;;1999.90;999.90;;;;;;;6.66;100.00;-18087.38;5061073;28;20526;-28
2021/04/02 05:54:09;;;;;;;1999.90;999.90;;;;;;;6.75;100.00;-18089.81;5059237;28;20443;-29
2021/04/02 05:56:55;;;;;;;1999.90;999.90;;;;;;;6.40;100.00;-18080.69;5061670;28;20266;-29
2021/04/02 05:59:43;;;;;;;1999.90;999.90;;;;;;;6.56;100.00;-18084.97;5061876;28;20200;-29
2021/04/02 06:02:30;;;;;;;1999.90;999.90;;;;;;;6.54;100.00;-18084.31;5063054;28;20904;-29
2021/04/02 06:05:16;;;;;;;1999.90;999.90;;;;;;;6.66;100.00;-18087.38;5060758;28;20227;-30
2021/04/02 06:08:03;;;;;;;1999.90;999.90;;;;;;;6.67;100.00;-18087.78;5060798;28;20443;-31
2021/04/02 06:10:49;;;;;;;1999.90;999.90;;;;;;;6.65;100.00;-18087.13;5061954;28;20204;-30
2021/04/02 06:13:35;;;;;;;1999.90;999.90;;;;;;;6.59;100.00;-18085.66;5059934;28;20447;-30
2021/04/02 06:16:22;;;;;;;1999.90;999.90;;;;;;;6.77;100.00;-18090.34;5060445;28;20435;-31
2021/04/02 06:19:13;;;;;;;1999.90;999.90;;;;;;;6.77;100.00;-18090.34;5060339;28;20490;-31
2021/04/02 06:22:01;;;;;;;1999.90;999.90;;;;;;;6.49;100.00;-18082.97;5060057;28;20447;-30
2021/04/02 06:24:55;;;;;;;1999.90;999.90;;;;;;;6.30;100.00;-18078.00;5061744;28;20298;-30
2021/04/02 06:28:01;;;;;;;1999.90;999.90;;;;;;;6.57;100.00;-18085.13;5060070;28;20875;-31
2021/04/02 06:31:04;;;;;;;1999.90;999.90;;;;;;;6.41;100.00;-18080.94;5059218;28;20513;-29
2021/04/02 06:33:58;;;;;;;1999.90;999.90;;;;;;;6.57;100.00;-18085.25;5060941;28;20355;-28
2021/04/02 06:36:46;;;;;;;1999.90;999.90;;;;;;;6.75;100.00;-18089.94;5044829;28;20788;-28
2021/04/02 06:39:34;;;;;;;1999.90;999.90;;;;;;;7.23;100.00;-18102.69;5062068;28;20489;-31
2021/04/02 06:42:29;;;;;;;1999.90;999.90;;;;;;;7.03;100.00;-18097.31;5060333;28;20925;-39
2021/04/02 06:45:16;;;;;;;1999.90;999.90;;;;;;;6.78;100.00;-18090.75;5062274;28;20227;-30
2021/04/02 06:48:10;;;;;;;1999.90;999.90;;;;;;;6.65;100.00;-18087.13;5059695;28;20247;-30
2021/04/02 06:50:57;;;;;;;1999.90;999.90;;;;;;;6.71;100.00;-18088.88;5061504;28;20204;-31
2021/04/02 06:53:48;;;;;;;1999.90;999.90;;;;;;;6.32;100.00;-18078.53;5058476;28;20204;-30
2021/04/02 06:56:35;;;;;;;1999.90;999.90;;;;;;;6.44;100.00;-18081.75;5059033;28;20196;-30
2021/04/02 06:59:25;;;;;;;1999.90;999.90;;;;;;;6.80;100.00;-18091.16;5058157;28;20447;-30
2021/04/02 07:02:15;;;;;;;1999.90;999.90;;;;;;;6.75;100.00;-18089.94;5065806;28;20446;-30
2021/04/02 07:05:01;;;;;;;1999.90;999.90;;;;;;;6.53;100.00;-18084.16;5058702;28;21046;-30
2021/04/02 07:07:53;;;;;;;1999.90;999.90;;;;;;;6.51;100.00;-18083.50;5059417;28;20203;-30
2021/04/02 07:10:40;;;;;;;1999.90;999.90;;;;;;;6.74;100.00;-18089.53;5058509;28;20597;-30
2021/04/02 07:13:32;;;;;;;1999.90;999.90;;;;;;;6.87;100.00;-18093.16;5058538;28;20435;-30
2021/04/02 07:16:18;;;;;;;1999.90;999.90;;;;;;;6.81;100.00;-18091.41;5061725;28;20454;-30
2021/04/02 07:19:07;;;;;;;1999.90;999.90;;;;;;;7.08;100.00;-18098.66;5058755;28;20754;-30
2021/04/02 07:21:53;;;;;;;1999.90;999.90;;;;;;;7.14;100.00;-18100.25;5057758;28;20456;-30
2021/04/02 07:24:40;;;;;;;1999.90;999.90;;;;;;;6.68;100.00;-18088.06;5057678;28;20493;-30
2021/04/02 07:27:29;;;;;;;1999.90;999.90;;;;;;;6.82;100.00;-18091.69;5060265;28;20643;-30
2021/04/02 07:30:23;;;;;;;1999.90;999.90;;;;;;;6.75;100.00;-18089.94;5057977;28;20874;-30
2021/04/02 07:33:16;;;;;;;1999.90;999.90;;;;;;;7.10;100.00;-18099.19;5057668;28;20199;-30
2021/04/02 07:36:10;;;;;;;1999.90;999.90;;;;;;;7.05;100.00;-18097.72;5060981;28;20193;-30
2021/04/02 07:38:56;;;;;;;1999.90;999.90;;;;;;;7.12;100.00;-18099.72;5058589;28;20283;-30
2021/04/02 07:41:47;;;;;;;1999.90;999.90;;;;;;;7.29;100.00;-18104.16;5056888;28;20204;-30
2021/04/02 07:44:37;;;;;;;1999.90;999.90;;;;;;;7.29;100.00;-18104.00;5056535;28;20350;-31
2021/04/02 07:47:24;;;;;;;1999.90;999.90;;;;;;;7.37;100.00;-18106.16;5060913;28;20603;-31
2021/04/02 07:50:12;;;;;;;1999.90;999.90;;;;;;;7.70;100.00;-18114.88;5057980;28;20215;-30
2021/04/02 07:52:59;;;;;;;1999.90;999.90;;;;;;;7.83;100.00;-18118.50;5057775;28;20208;-31
2021/04/02 07:55:53;;;;;;;1999.90;999.90;;;;;;;7.85;100.00;-18118.88;5058573;28;20188;-31
2021/04/02 07:58:47;;;;;;;1999.90;999.90;;;;;;;7.77;100.00;-18116.75;5059288;28;20207;-30
2021/04/02 08:01:33;;;;;;;1999.90;999.90;;;;;;;7.84;100.00;-18118.63;5056085;28;20192;-31
2021/04/02 08:04:22;;;;;;;1999.90;999.90;;;;;;;7.71;100.00;-18115.28;5049229;28;20207;-30
2021/04/02 08:07:12;;;;;;;1999.90;999.90;;;;;;;7.49;100.00;-18109.38;5039335;28;20260;-30
2021/04/02 08:10:00;;;;;;;1999.90;999.90;;;;;;;7.85;100.00;-18118.88;5051290;28;20208;-30
2021/04/02 08:12:53;;;;;;;1999.90;999.90;;;;;;;8.24;100.00;-18129.34;5057550;28;20200;-31
2021/04/02 08:15:39;;;;;;;1999.90;999.90;;;;;;;8.03;100.00;-18123.59;5059567;28;20197;-31
2021/04/02 08:18:28;;;;;;;1999.90;999.90;;;;;;;8.01;100.00;-18123.03;5056810;28;20722;-31
2021/04/02 08:21:15;;;;;;;1999.90;999.90;;;;;;;7.68;100.00;-18114.34;5059844;28;20200;-30
2021/04/02 08:24:11;;;;;;;1999.90;999.90;;;;;;;8.08;100.00;-18124.91;5055949;28;20216;-30
2021/04/02 08:26:57;;;;;;;1999.90;999.90;;;;;;;8.42;100.00;-18133.91;5065380;28;20212;-30
2021/04/02 08:29:44;;;;;;;1999.90;999.90;;;;;;;8.64;100.00;-18139.94;5058152;28;20600;-31
2021/04/02 08:32:35;;;;;;;1999.90;999.90;;;;;;;8.37;100.00;-18132.69;5059282;28;20227;-31
2021/04/02 08:35:21;;;;;;;1999.90;999.90;;;;;;;8.35;100.00;-18132.16;5057476;28;20191;-31
2021/04/02 08:38:12;;;;;;;1999.90;999.90;;;;;;;8.19;100.00;-18128.00;5059915;28;20573;-31
2021/04/02 08:41:17;;;;;;;1999.90;999.90;;;;;;;8.62;100.00;-18139.25;5062451;28;20679;-30
2021/04/02 08:44:03;;;;;;;1999.90;999.90;;;;;;;8.82;100.00;-18144.63;5061324;28;20622;-31
2021/04/02 08:46:53;;;;;;;1999.90;999.90;;;;;;;8.41;100.00;-18133.63;5059099;28;20263;-31
2021/04/02 08:49:42;;;;;;;1999.90;999.90;;;;;;;8.44;100.00;-18134.44;5059626;28;20191;-30
2021/04/02 08:52:32;;;;;;;1999.90;999.90;;;;;;;8.11;100.00;-18125.72;5060717;28;20335;-31
2021/04/02 08:55:18;;;;;;;1999.90;999.90;;;;;;;8.23;100.00;-18128.94;5060113;28;20668;-30
2021/04/02 08:58:04;;;;;;;1999.90;999.90;;;;;;;8.52;100.00;-18136.59;5060145;28;20200;-31
2021/04/02 09:00:50;;;;;;;1999.90;999.90;;;;;;;8.69;100.00;-18141.00;5062257;28;20603;-30
2021/04/02 09:03:37;;;;;;;1999.90;999.90;;;;;;;8.58;100.00;-18138.19;5059758;28;20262;-31
2021/04/02 09:06:24;;;;;;;1999.90;999.90;;;;;;;8.70;100.00;-18141.41;5061498;28;20254;-30
2021/04/02 09:09:17;;;;;;;1999.90;999.90;;;;;;;8.34;100.00;-18131.91;5068025;28;20257;-31
2021/04/02 09:12:09;;;;;;;1999.90;999.90;;;;;;;8.23;100.00;-18129.06;5063612;28;20263;-30
2021/04/02 09:14:58;;;;;;;1999.90;999.90;;;;;;;7.99;100.00;-18122.66;5064781;28;20200;-32
2021/04/02 09:17:44;;;;;;;1999.90;999.90;;;;;;;7.80;100.00;-18117.69;5060899;28;20516;-30
2021/04/02 09:20:32;;;;;;;1999.90;999.90;;;;;;;7.59;100.00;-18112.19;5059393;28;20307;-30
2021/04/02 09:23:31;;;;;;;1999.90;999.90;;;;;;;7.58;100.00;-18111.78;5047778;28;20195;-30
2021/04/02 09:26:27;;;;;;;1999.90;999.90;;;;;;;7.99;100.00;-18122.66;5059098;28;20287;-30
2021/04/02 09:29:22;;;;;;;1999.90;999.90;;;;;;;7.66;100.00;-18113.94;5024869;28;20655;-30
2021/04/02 09:32:33;;;;;;;1999.90;999.90;;;;;;;7.86;100.00;-18119.28;5039056;28;20201;-30
2021/04/02 09:35:27;;;;;;;1999.90;999.90;;;;;;;8.40;100.00;-18133.38;5039078;28;20197;-30
2021/04/02 09:38:12;;;;;;;1999.90;999.90;;;;;;;8.27;100.00;-18130.00;5039638;28;20201;-30
2021/04/02 09:41:05;;;;;;;1999.90;999.90;;;;;;;8.04;100.00;-18123.97;5040316;28;20205;-30
2021/04/02 09:43:53;;;;;;;1999.90;999.90;;;;;;;8.17;100.00;-18127.34;5039125;28;20399;-30
2021/04/02 09:46:40;;;;;;;1999.90;999.90;;;;;;;8.38;100.00;-18132.84;5037539;28;20229;-30
2021/04/02 09:49:26;;;;;;;1999.90;999.90;;;;;;;8.34;100.00;-18131.91;5038290;28;20620;-30
2021/04/02 09:52:14;;;;;;;1999.90;999.90;;;;;;;8.94;100.00;-18147.69;5039089;28;20200;-30
2021/04/02 09:55:12;;;;;;;1999.90;999.90;;;;;;;8.17;100.00;-18127.34;5039204;28;20337;-30
2021/04/02 09:58:02;;;;;;;1999.90;999.90;;;;;;;8.54;100.00;-18137.13;5039603;28;20339;-30
2021/04/02 10:00:50;;;;;;;1999.90;999.90;;;;;;;9.01;100.00;-18149.56;5038358;28;20478;-30
2021/04/02 10:03:37;;;;;;;1999.90;999.90;;;;;;;8.55;100.00;-18137.53;5038652;28;20352;-30
2021/04/02 10:06:22;;;;;;;1999.90;999.90;;;;;;;8.18;100.00;-18127.59;5038281;28;20228;-30
2021/04/02 10:09:13;;;;;;;1999.90;999.90;;;;;;;8.23;100.00;-18129.06;5041357;28;20447;-30
2021/04/02 10:11:58;;;;;;;1999.90;999.90;;;;;;;8.71;100.00;-18141.53;5038178;28;20344;-30
2021/04/02 10:14:46;;;;;;;1999.90;999.90;;;;;;;8.94;100.00;-18147.69;5037889;28;20481;-30
2021/04/02 10:17:32;;;;;;;1999.90;999.90;;;;;;;8.74;100.00;-18142.47;5037973;28;20228;-30
2021/04/02 10:20:18;;;;;;;1999.90;999.90;;;;;;;8.55;100.00;-18137.38;5037814;28;20614;-30
2021/04/02 10:23:06;;;;;;;1999.90;999.90;;;;;;;8.61;100.00;-18139.13;5038495;28;20206;-30
2021/04/02 10:25:52;;;;;;;1999.90;999.90;;;;;;;8.96;100.00;-18148.22;5038626;28;20656;-30
2021/04/02 10:28:38;;;;;;;1999.90;999.90;;;;;;;8.77;100.00;-18143.16;5038825;28;20197;-30
2021/04/02 10:31:25;;;;;;;1999.90;999.90;;;;;;;8.18;100.00;-18127.59;5038207;28;20287;-30
2021/04/02 10:34:14;;;;;;;1999.90;999.90;;;;;;;8.84;100.00;-18145.00;5043371;28;20196;-30
2021/04/02 10:36:59;;;;;;;1999.90;999.90;;;;;;;8.71;100.00;-18141.66;5049014;28;20215;-30
2021/04/02 10:39:47;;;;;;;1999.90;999.90;;;;;;;8.69;100.00;-18141.13;5046529;28;20200;-30
2021/04/02 10:42:34;;;;;;;1999.90;999.90;;;;;;;8.25;100.00;-18129.47;5047803;28;20205;-30
2021/04/02 10:45:22;;;;;;;1999.90;999.90;;;;;;;8.31;100.00;-18131.09;5048333;28;20740;-29
2021/04/02 10:48:10;;;;;;;1999.90;999.90;;;;;;;8.25;100.00;-18129.47;5047204;28;20291;-31
2021/04/02 10:50:57;;;;;;;1999.90;999.90;;;;;;;8.57;100.00;-18137.91;5045129;28;20218;-28
2021/04/02 10:53:42;;;;;;;1999.90;999.90;;;;;;;8.69;100.00;-18141.13;5047890;28;20781;-31
2021/04/02 10:56:29;;;;;;;1999.90;999.90;;;;;;;8.61;100.00;-18139.00;5046722;28;20305;-31
2021/04/02 10:59:22;;;;;;;1999.90;999.90;;;;;;;8.61;100.00;-18139.13;5045471;28;20213;-31
2021/04/02 11:02:10;;;;;;;1999.90;999.90;;;;;;;8.30;100.00;-18130.94;5044207;28;20613;-30
2021/04/02 11:05:00;;;;;;;1999.90;999.90;;;;;;;8.38;100.00;-18132.97;5036931;28;20204;-28
2021/04/02 11:07:49;;;;;;;1999.90;999.90;;;;;;;8.25;100.00;-18129.47;5037212;28;20482;-28
2021/04/02 11:10:37;;;;;;;1999.90;999.90;;;;;;;8.64;100.00;-18139.94;5036881;28;20197;-30
2021/04/02 11:13:25;;;;;;;1999.90;999.90;;;;;;;9.14;100.00;-18152.91;5045239;28;20199;-29
2021/04/02 11:16:13;;;;;;;1999.90;999.90;;;;;;;8.89;100.00;-18146.34;5047727;28;20204;-29
2021/04/02 11:19:04;;;;;;;1999.90;999.90;;;;;;;9.14;100.00;-18153.06;5045170;28;20256;-29
2021/04/02 11:21:50;;;;;;;1999.90;999.90;;;;;;;8.63;100.00;-18139.53;5047213;28;20271;-30
2021/04/02 11:24:37;;;;;;;1999.90;999.90;;;;;;;8.70;100.00;-18141.25;5045036;28;20766;-29
2021/04/02 11:27:23;;;;;;;1999.90;999.90;;;;;;;8.60;100.00;-18138.72;5046928;28;20524;-30
2021/04/02 11:30:13;;;;;;;1999.90;999.90;;;;;;;8.67;100.00;-18140.47;5044538;28;20214;-30
2021/04/02 11:32:59;;;;;;;1999.90;999.90;;;;;;;8.66;100.00;-18140.31;5048616;28;20263;-30
2021/04/02 11:35:45;;;;;;;1999.90;999.90;;;;;;;8.34;100.00;-18131.91;5045353;28;20251;-28
2021/04/02 11:38:34;;;;;;;1999.90;999.90;;;;;;;8.86;100.00;-18145.56;5047711;28;20255;-29
2021/04/02 11:41:19;;;;;;;1999.90;999.90;;;;;;;8.69;100.00;-18141.00;5045903;28;20280;-30
2021/04/02 11:44:08;;;;;;;1999.90;999.90;;;;;;;8.58;100.00;-18138.31;5047508;28;20209;-29
2021/04/02 11:46:56;;;;;;;1999.90;999.90;;;;;;;8.77;100.00;-18143.28;5047293;28;20232;-29
2021/04/02 11:49:42;;;;;;;1999.90;999.90;;;;;;;9.06;100.00;-18150.91;5045713;28;20300;-29
2021/04/02 11:52:27;;;;;;;1999.90;999.90;;;;;;;8.61;98.50;-18139.00;5046881;28;20207;-30
2021/04/02 11:55:25;;;;;;;1999.90;999.90;;;;;;;9.29;99.66;-18157.06;5046397;28;20257;-29
2021/04/02 11:58:18;;;;;;;1999.90;999.90;;;;;;;9.49;95.53;-18162.16;5047252;28;20676;-29
2021/04/02 12:01:14;;;;;;;1999.90;999.90;;;;;;;9.66;94.45;-18166.84;5046945;28;20205;-30
2021/04/02 12:04:10;;;;;;;1999.90;999.90;;;;;;;9.47;94.55;-18161.75;5044850;28;20206;-30
2021/04/02 12:06:55;;;;;;;1999.90;999.90;;;;;;;9.83;90.25;-18171.25;5047764;28;20667;-31
2021/04/02 12:09:42;;;;;;;1999.90;999.90;;;;;;;9.52;91.40;-18162.94;5046565;28;20195;-30
2021/04/02 12:12:28;;;;;;;1999.90;999.90;;;;;;;9.31;88.72;-18157.59;5050565;28;20479;-30
2021/04/02 12:15:14;;;;;;;1999.90;999.90;;;;;;;9.36;90.45;-18158.81;5051259;28;20303;-30
2021/04/02 12:18:00;;;;;;;1999.90;999.90;;;;;;;9.25;90.94;-18155.84;5049277;28;20328;-30
2021/04/02 12:20:45;;;;;;;1999.90;999.90;;;;;;;9.67;88.36;-18167.09;5048461;28;20199;-30